sensor_id;sensor_type;location;lat;lon;timestamp;P1;durP1;ratioP1;P2;durP2;ratioP2
11964;SDS011;6042;41.326;19.826;2023-03-04T00:01:58;9.10;;;3.87;;
11964;SDS011;6042;41.326;19.826;2023-03-04T00:04:26;5.73;;;3.40;;
11964;SDS011;6042;41.326;19.826;2023-03-04T00:06:55;5.50;;;3.40;;
11964;SDS011;6042;41.326;19.826;2023-03-04T00:09:24;8.80;;;3.30;;
11964;SDS011;6042;41.326;19.826;2023-03-04T00:11:52;4.67;;;2.93;;
11964;SDS011;6042;41.326;19.826;2023-03-04T00:14:20;8.87;;;3.60;;
11964;SDS011;6042;41.326;19.826;2023-03-04T00:16:50;5.27;;;3.00;;
11964;SDS011;6042;41.326;19.826;2023-03-04T00:19:19;8.70;;;3.23;;
11964;SDS011;6042;41.326;19.826;2023-03-04T00:21:47;9.17;;;3.40;;
11964;SDS011;6042;41.326;19.826;2023-03-04T00:24:15;6.10;;;2.97;;
11964;SDS011;6042;41.326;19.826;2023-03-04T00:26:44;3.53;;;2.60;;
11964;SDS011;6042;41.326;19.826;2023-03-04T00:29:12;8.97;;;3.00;;
11964;SDS011;6042;41.326;19.826;2023-03-04T00:31:41;15.40;;;3.10;;
11964;SDS011;6042;41.326;19.826;2023-03-04T00:34:11;7.97;;;2.80;;
11964;SDS011;6042;41.326;19.826;2023-03-04T00:36:39;5.10;;;2.50;;
11964;SDS011;6042;41.326;19.826;2023-03-04T00:39:09;4.17;;;2.70;;
11964;SDS011;6042;41.326;19.826;2023-03-04T00:41:38;5.30;;;2.70;;
11964;SDS011;6042;41.326;19.826;2023-03-04T00:44:06;4.60;;;2.37;;
11964;SDS011;6042;41.326;19.826;2023-03-04T00:46:35;5.60;;;2.60;;
11964;SDS011;6042;41.326;19.826;2023-03-04T00:49:03;5.27;;;2.60;;
11964;SDS011;6042;41.326;19.826;2023-03-04T00:51:33;3.07;;;2.27;;
11964;SDS011;6042;41.326;19.826;2023-03-04T00:54:01;4.73;;;2.47;;
11964;SDS011;6042;41.326;19.826;2023-03-04T00:56:30;4.77;;;2.20;;
11964;SDS011;6042;41.326;19.826;2023-03-04T00:58:58;3.93;;;2.13;;
11964;SDS011;6042;41.326;19.826;2023-03-04T01:01:27;7.50;;;2.57;;
11964;SDS011;6042;41.326;19.826;2023-03-04T01:03:55;3.50;;;2.37;;
11964;SDS011;6042;41.326;19.826;2023-03-04T01:06:25;4.03;;;1.87;;
11964;SDS011;6042;41.326;19.826;2023-03-04T01:08:55;5.07;;;2.50;;
11964;SDS011;6042;41.326;19.826;2023-03-04T01:11:23;3.20;;;2.17;;
11964;SDS011;6042;41.326;19.826;2023-03-04T01:13:51;3.57;;;2.50;;
11964;SDS011;6042;41.326;19.826;2023-03-04T01:16:20;4.83;;;2.70;;
11964;SDS011;6042;41.326;19.826;2023-03-04T01:18:48;6.87;;;2.67;;
11964;SDS011;6042;41.326;19.826;2023-03-04T01:21:17;4.80;;;2.83;;
11964;SDS011;6042;41.326;19.826;2023-03-04T01:23:45;4.33;;;2.57;;
11964;SDS011;6042;41.326;19.826;2023-03-04T01:26:15;3.63;;;2.33;;
11964;SDS011;6042;41.326;19.826;2023-03-04T01:28:45;4.67;;;2.57;;
11964;SDS011;6042;41.326;19.826;2023-03-04T01:31:14;3.33;;;2.23;;
11964;SDS011;6042;41.326;19.826;2023-03-04T01:33:43;3.90;;;2.60;;
11964;SDS011;6042;41.326;19.826;2023-03-04T01:36:11;6.23;;;2.83;;
11964;SDS011;6042;41.326;19.826;2023-03-04T01:38:39;3.77;;;2.70;;
11964;SDS011;6042;41.326;19.826;2023-03-04T01:41:09;4.60;;;2.47;;
11964;SDS011;6042;41.326;19.826;2023-03-04T01:43:40;4.67;;;2.70;;
11964;SDS011;6042;41.326;19.826;2023-03-04T01:46:10;5.50;;;2.60;;
11964;SDS011;6042;41.326;19.826;2023-03-04T01:48:40;5.37;;;2.87;;
11964;SDS011;6042;41.326;19.826;2023-03-04T01:51:10;4.13;;;2.50;;
11964;SDS011;6042;41.326;19.826;2023-03-04T01:53:41;4.23;;;2.73;;
11964;SDS011;6042;41.326;19.826;2023-03-04T01:56:12;3.40;;;2.77;;
11964;SDS011;6042;41.326;19.826;2023-03-04T01:58:44;6.07;;;2.83;;
11964;SDS011;6042;41.326;19.826;2023-03-04T02:01:13;3.60;;;2.53;;
11964;SDS011;6042;41.326;19.826;2023-03-04T02:03:41;5.00;;;3.13;;
11964;SDS011;6042;41.326;19.826;2023-03-04T02:06:10;7.07;;;3.30;;
11964;SDS011;6042;41.326;19.826;2023-03-04T02:08:38;6.93;;;3.27;;
11964;SDS011;6042;41.326;19.826;2023-03-04T02:11:06;3.50;;;3.03;;
11964;SDS011;6042;41.326;19.826;2023-03-04T02:13:35;4.83;;;2.93;;
11964;SDS011;6042;41.326;19.826;2023-03-04T02:16:05;5.20;;;3.20;;
11964;SDS011;6042;41.326;19.826;2023-03-04T02:18:34;5.97;;;3.47;;
11964;SDS011;6042;41.326;19.826;2023-03-04T02:21:04;5.57;;;3.43;;
11964;SDS011;6042;41.326;19.826;2023-03-04T02:23:37;6.03;;;3.40;;
11964;SDS011;6042;41.326;19.826;2023-03-04T02:26:15;4.07;;;2.97;;
11964;SDS011;6042;41.326;19.826;2023-03-04T02:28:48;3.70;;;2.97;;
11964;SDS011;6042;41.326;19.826;2023-03-04T02:31:23;4.53;;;2.90;;
11964;SDS011;6042;41.326;19.826;2023-03-04T02:33:55;5.43;;;2.93;;
11964;SDS011;6042;41.326;19.826;2023-03-04T02:36:25;5.50;;;3.20;;
11964;SDS011;6042;41.326;19.826;2023-03-04T02:38:59;5.40;;;3.10;;
11964;SDS011;6042;41.326;19.826;2023-03-04T02:41:30;4.80;;;3.30;;
11964;SDS011;6042;41.326;19.826;2023-03-04T02:43:59;8.13;;;4.03;;
11964;SDS011;6042;41.326;19.826;2023-03-04T02:46:28;5.70;;;3.20;;
11964;SDS011;6042;41.326;19.826;2023-03-04T02:48:57;4.07;;;2.60;;
11964;SDS011;6042;41.326;19.826;2023-03-04T02:51:26;3.27;;;1.50;;
11964;SDS011;6042;41.326;19.826;2023-03-04T02:53:55;2.33;;;1.40;;
11964;SDS011;6042;41.326;19.826;2023-03-04T02:56:23;2.40;;;1.30;;
11964;SDS011;6042;41.326;19.826;2023-03-04T02:58:54;3.73;;;1.13;;
11964;SDS011;6042;41.326;19.826;2023-03-04T03:01:22;1.97;;;0.87;;
11964;SDS011;6042;41.326;19.826;2023-03-04T03:03:55;1.73;;;1.23;;
11964;SDS011;6042;41.326;19.826;2023-03-04T03:06:24;3.87;;;1.30;;
11964;SDS011;6042;41.326;19.826;2023-03-04T03:08:53;3.33;;;1.27;;
11964;SDS011;6042;41.326;19.826;2023-03-04T03:11:21;1.30;;;1.20;;
11964;SDS011;6042;41.326;19.826;2023-03-04T03:13:54;2.73;;;1.30;;
11964;SDS011;6042;41.326;19.826;2023-03-04T03:16:24;1.73;;;0.90;;
11964;SDS011;6042;41.326;19.826;2023-03-04T03:18:52;1.97;;;1.10;;
11964;SDS011;6042;41.326;19.826;2023-03-04T03:21:21;2.63;;;1.30;;
11964;SDS011;6042;41.326;19.826;2023-03-04T03:23:49;1.37;;;1.10;;
11964;SDS011;6042;41.326;19.826;2023-03-04T03:26:18;3.37;;;1.10;;
11964;SDS011;6042;41.326;19.826;2023-03-04T03:28:47;1.47;;;1.20;;
11964;SDS011;6042;41.326;19.826;2023-03-04T03:31:17;2.10;;;1.10;;
11964;SDS011;6042;41.326;19.826;2023-03-04T03:33:45;1.37;;;1.10;;
11964;SDS011;6042;41.326;19.826;2023-03-04T03:36:14;1.53;;;1.20;;
11964;SDS011;6042;41.326;19.826;2023-03-04T03:38:42;1.20;;;1.10;;
11964;SDS011;6042;41.326;19.826;2023-03-04T03:41:10;1.60;;;1.27;;
11964;SDS011;6042;41.326;19.826;2023-03-04T03:43:39;1.50;;;1.20;;
11964;SDS011;6042;41.326;19.826;2023-03-04T03:46:07;3.23;;;1.37;;
11964;SDS011;6042;41.326;19.826;2023-03-04T03:48:37;1.00;;;1.00;;
11964;SDS011;6042;41.326;19.826;2023-03-04T03:51:05;2.83;;;1.20;;
11964;SDS011;6042;41.326;19.826;2023-03-04T03:53:34;1.67;;;1.30;;
11964;SDS011;6042;41.326;19.826;2023-03-04T03:56:02;1.70;;;1.40;;
11964;SDS011;6042;41.326;19.826;2023-03-04T03:58:31;1.80;;;1.53;;
11964;SDS011;6042;41.326;19.826;2023-03-04T04:00:59;2.87;;;1.70;;
11964;SDS011;6042;41.326;19.826;2023-03-04T04:03:28;3.07;;;1.80;;
11964;SDS011;6042;41.326;19.826;2023-03-04T04:05:59;4.33;;;2.00;;
11964;SDS011;6042;41.326;19.826;2023-03-04T04:08:27;3.23;;;2.47;;
11964;SDS011;6042;41.326;19.826;2023-03-04T04:10:56;4.43;;;3.23;;
11964;SDS011;6042;41.326;19.826;2023-03-04T04:13:24;5.00;;;2.80;;
11964;SDS011;6042;41.326;19.826;2023-03-04T04:15:52;4.00;;;2.80;;
11964;SDS011;6042;41.326;19.826;2023-03-04T04:18:21;3.03;;;2.67;;
11964;SDS011;6042;41.326;19.826;2023-03-04T04:20:52;4.10;;;3.27;;
11964;SDS011;6042;41.326;19.826;2023-03-04T04:23:22;3.67;;;2.97;;
11964;SDS011;6042;41.326;19.826;2023-03-04T04:25:53;6.80;;;3.00;;
11964;SDS011;6042;41.326;19.826;2023-03-04T04:28:21;4.17;;;2.67;;
11964;SDS011;6042;41.326;19.826;2023-03-04T04:30:50;4.87;;;3.00;;
11964;SDS011;6042;41.326;19.826;2023-03-04T04:33:18;3.23;;;2.70;;
11964;SDS011;6042;41.326;19.826;2023-03-04T04:35:47;3.37;;;2.77;;
11964;SDS011;6042;41.326;19.826;2023-03-04T04:38:16;3.57;;;2.53;;
11964;SDS011;6042;41.326;19.826;2023-03-04T04:40:46;4.40;;;2.73;;
11964;SDS011;6042;41.326;19.826;2023-03-04T04:43:14;3.30;;;2.80;;
11964;SDS011;6042;41.326;19.826;2023-03-04T04:45:42;4.13;;;2.10;;
11964;SDS011;6042;41.326;19.826;2023-03-04T04:48:11;2.10;;;1.93;;
11964;SDS011;6042;41.326;19.826;2023-03-04T04:50:39;2.47;;;1.70;;
11964;SDS011;6042;41.326;19.826;2023-03-04T04:53:08;2.17;;;1.50;;
11964;SDS011;6042;41.326;19.826;2023-03-04T04:55:38;2.03;;;1.17;;
11964;SDS011;6042;41.326;19.826;2023-03-04T04:58:08;2.73;;;1.17;;
11964;SDS011;6042;41.326;19.826;2023-03-04T05:00:36;1.77;;;1.20;;
11964;SDS011;6042;41.326;19.826;2023-03-04T05:03:05;0.97;;;0.87;;
11964;SDS011;6042;41.326;19.826;2023-03-04T05:05:33;1.33;;;0.90;;
11964;SDS011;6042;41.326;19.826;2023-03-04T05:08:02;1.33;;;0.60;;
11964;SDS011;6042;41.326;19.826;2023-03-04T05:10:30;1.13;;;0.80;;
11964;SDS011;6042;41.326;19.826;2023-03-04T05:12:59;1.37;;;0.90;;
11964;SDS011;6042;41.326;19.826;2023-03-04T05:15:28;0.60;;;0.60;;
11964;SDS011;6042;41.326;19.826;2023-03-04T05:17:57;2.03;;;0.80;;
11964;SDS011;6042;41.326;19.826;2023-03-04T05:20:25;1.77;;;0.90;;
11964;SDS011;6042;41.326;19.826;2023-03-04T05:22:53;1.07;;;0.97;;
11964;SDS011;6042;41.326;19.826;2023-03-04T05:25:23;0.70;;;0.70;;
11964;SDS011;6042;41.326;19.826;2023-03-04T05:27:51;1.20;;;0.70;;
11964;SDS011;6042;41.326;19.826;2023-03-04T05:30:20;1.00;;;0.80;;
11964;SDS011;6042;41.326;19.826;2023-03-04T05:32:49;2.90;;;0.70;;
11964;SDS011;6042;41.326;19.826;2023-03-04T05:35:18;1.20;;;1.10;;
11964;SDS011;6042;41.326;19.826;2023-03-04T05:37:46;0.80;;;0.80;;
11964;SDS011;6042;41.326;19.826;2023-03-04T05:40:14;0.80;;;0.80;;
11964;SDS011;6042;41.326;19.826;2023-03-04T05:42:43;0.80;;;0.80;;
11964;SDS011;6042;41.326;19.826;2023-03-04T05:45:11;1.00;;;0.80;;
11964;SDS011;6042;41.326;19.826;2023-03-04T05:47:40;0.87;;;0.80;;
11964;SDS011;6042;41.326;19.826;2023-03-04T05:50:10;1.03;;;0.80;;
11964;SDS011;6042;41.326;19.826;2023-03-04T05:52:39;1.73;;;0.93;;
11964;SDS011;6042;41.326;19.826;2023-03-04T05:55:08;1.13;;;0.90;;
11964;SDS011;6042;41.326;19.826;2023-03-04T05:57:37;0.77;;;0.77;;
11964;SDS011;6042;41.326;19.826;2023-03-04T06:00:06;1.50;;;0.93;;
11964;SDS011;6042;41.326;19.826;2023-03-04T06:02:39;1.20;;;1.10;;
11964;SDS011;6042;41.326;19.826;2023-03-04T06:05:09;1.00;;;1.00;;
11964;SDS011;6042;41.326;19.826;2023-03-04T06:07:39;1.57;;;1.10;;
11964;SDS011;6042;41.326;19.826;2023-03-04T06:10:09;1.37;;;1.00;;
11964;SDS011;6042;41.326;19.826;2023-03-04T06:12:38;1.87;;;1.50;;
11964;SDS011;6042;41.326;19.826;2023-03-04T06:15:07;1.17;;;1.07;;
11964;SDS011;6042;41.326;19.826;2023-03-04T06:17:36;2.07;;;1.50;;
11964;SDS011;6042;41.326;19.826;2023-03-04T06:20:08;1.63;;;1.20;;
11964;SDS011;6042;41.326;19.826;2023-03-04T06:22:39;1.37;;;0.80;;
11964;SDS011;6042;41.326;19.826;2023-03-04T06:25:07;1.10;;;1.00;;
11964;SDS011;6042;41.326;19.826;2023-03-04T06:27:36;1.93;;;0.90;;
11964;SDS011;6042;41.326;19.826;2023-03-04T06:30:05;0.73;;;0.73;;
11964;SDS011;6042;41.326;19.826;2023-03-04T06:32:34;1.13;;;0.87;;
11964;SDS011;6042;41.326;19.826;2023-03-04T06:35:03;1.03;;;0.93;;
11964;SDS011;6042;41.326;19.826;2023-03-04T06:37:33;1.83;;;1.00;;
11964;SDS011;6042;41.326;19.826;2023-03-04T06:40:02;1.70;;;1.30;;
11964;SDS011;6042;41.326;19.826;2023-03-04T06:42:32;1.73;;;1.40;;
11964;SDS011;6042;41.326;19.826;2023-03-04T06:45:00;1.67;;;1.40;;
11964;SDS011;6042;41.326;19.826;2023-03-04T06:47:29;2.07;;;1.90;;
11964;SDS011;6042;41.326;19.826;2023-03-04T06:49:58;2.77;;;2.40;;
11964;SDS011;6042;41.326;19.826;2023-03-04T06:52:26;4.17;;;3.37;;
11964;SDS011;6042;41.326;19.826;2023-03-04T06:54:56;5.13;;;3.67;;
11964;SDS011;6042;41.326;19.826;2023-03-04T06:57:24;8.63;;;4.53;;
11964;SDS011;6042;41.326;19.826;2023-03-04T06:59:53;5.40;;;4.90;;
11964;SDS011;6042;41.326;19.826;2023-03-04T07:02:23;6.27;;;5.13;;
11964;SDS011;6042;41.326;19.826;2023-03-04T07:04:51;6.20;;;4.73;;
11964;SDS011;6042;41.326;19.826;2023-03-04T07:07:20;8.87;;;5.83;;
11964;SDS011;6042;41.326;19.826;2023-03-04T07:09:48;7.23;;;5.90;;
11964;SDS011;6042;41.326;19.826;2023-03-04T07:12:18;7.87;;;6.60;;
11964;SDS011;6042;41.326;19.826;2023-03-04T07:14:46;6.87;;;5.87;;
11964;SDS011;6042;41.326;19.826;2023-03-04T07:17:14;7.50;;;5.60;;
11964;SDS011;6042;41.326;19.826;2023-03-04T07:19:43;7.20;;;5.87;;
11964;SDS011;6042;41.326;19.826;2023-03-04T07:22:11;6.70;;;5.00;;
11964;SDS011;6042;41.326;19.826;2023-03-04T07:24:40;5.77;;;5.20;;
11964;SDS011;6042;41.326;19.826;2023-03-04T07:27:08;7.43;;;6.40;;
11964;SDS011;6042;41.326;19.826;2023-03-04T07:29:38;6.50;;;5.80;;
11964;SDS011;6042;41.326;19.826;2023-03-04T07:32:06;7.03;;;6.20;;
11964;SDS011;6042;41.326;19.826;2023-03-04T07:34:35;7.60;;;6.13;;
11964;SDS011;6042;41.326;19.826;2023-03-04T07:37:04;7.43;;;6.57;;
11964;SDS011;6042;41.326;19.826;2023-03-04T07:39:32;11.13;;;7.07;;
11964;SDS011;6042;41.326;19.826;2023-03-04T07:42:01;8.53;;;6.80;;
11964;SDS011;6042;41.326;19.826;2023-03-04T07:44:29;8.30;;;7.20;;
11964;SDS011;6042;41.326;19.826;2023-03-04T07:46:59;7.50;;;6.13;;
11964;SDS011;6042;41.326;19.826;2023-03-04T07:49:27;8.97;;;6.10;;
11964;SDS011;6042;41.326;19.826;2023-03-04T07:51:56;8.27;;;7.27;;
11964;SDS011;6042;41.326;19.826;2023-03-04T07:54:24;9.23;;;7.10;;
11964;SDS011;6042;41.326;19.826;2023-03-04T07:56:52;13.03;;;8.57;;
11964;SDS011;6042;41.326;19.826;2023-03-04T07:59:21;13.13;;;8.33;;
11964;SDS011;6042;41.326;19.826;2023-03-04T08:01:50;13.00;;;8.10;;
11964;SDS011;6042;41.326;19.826;2023-03-04T08:04:19;8.73;;;7.80;;
11964;SDS011;6042;41.326;19.826;2023-03-04T08:06:48;11.53;;;8.20;;
11964;SDS011;6042;41.326;19.826;2023-03-04T08:09:16;8.50;;;7.70;;
11964;SDS011;6042;41.326;19.826;2023-03-04T08:11:45;11.83;;;8.60;;
11964;SDS011;6042;41.326;19.826;2023-03-04T08:14:13;15.33;;;8.93;;
11964;SDS011;6042;41.326;19.826;2023-03-04T08:16:42;10.13;;;8.00;;
11964;SDS011;6042;41.326;19.826;2023-03-04T08:19:10;8.17;;;7.23;;
11964;SDS011;6042;41.326;19.826;2023-03-04T08:21:40;6.47;;;5.57;;
11964;SDS011;6042;41.326;19.826;2023-03-04T08:24:09;6.93;;;4.67;;
11964;SDS011;6042;41.326;19.826;2023-03-04T08:26:39;7.00;;;5.40;;
11964;SDS011;6042;41.326;19.826;2023-03-04T08:29:11;6.57;;;4.17;;
11964;SDS011;6042;41.326;19.826;2023-03-04T08:31:41;5.47;;;3.93;;
11964;SDS011;6042;41.326;19.826;2023-03-04T08:34:14;9.97;;;4.80;;
11964;SDS011;6042;41.326;19.826;2023-03-04T08:36:45;5.63;;;3.40;;
11964;SDS011;6042;41.326;19.826;2023-03-04T08:39:15;4.83;;;3.77;;
11964;SDS011;6042;41.326;19.826;2023-03-04T08:41:45;3.27;;;2.20;;
11964;SDS011;6042;41.326;19.826;2023-03-04T08:44:14;5.60;;;1.70;;
11964;SDS011;6042;41.326;19.826;2023-03-04T08:46:43;1.40;;;1.30;;
11964;SDS011;6042;41.326;19.826;2023-03-04T08:49:11;8.67;;;1.53;;
11964;SDS011;6042;41.326;19.826;2023-03-04T08:51:49;6.00;;;1.23;;
11964;SDS011;6042;41.326;19.826;2023-03-04T08:54:18;2.50;;;1.03;;
11964;SDS011;6042;41.326;19.826;2023-03-04T08:56:47;1.47;;;0.90;;
11964;SDS011;6042;41.326;19.826;2023-03-04T08:59:15;1.27;;;1.10;;
11964;SDS011;6042;41.326;19.826;2023-03-04T09:01:44;1.57;;;0.90;;
11964;SDS011;6042;41.326;19.826;2023-03-04T09:04:13;3.07;;;0.90;;
11964;SDS011;6042;41.326;19.826;2023-03-04T09:06:44;1.37;;;0.67;;
11964;SDS011;6042;41.326;19.826;2023-03-04T09:09:13;1.73;;;0.87;;
11964;SDS011;6042;41.326;19.826;2023-03-04T09:11:42;2.90;;;1.53;;
11964;SDS011;6042;41.326;19.826;2023-03-04T09:14:10;1.77;;;0.80;;
11964;SDS011;6042;41.326;19.826;2023-03-04T09:16:39;1.90;;;1.10;;
11964;SDS011;6042;41.326;19.826;2023-03-04T09:19:07;5.50;;;1.00;;
11964;SDS011;6042;41.326;19.826;2023-03-04T09:21:36;2.13;;;1.20;;
11964;SDS011;6042;41.326;19.826;2023-03-04T09:24:04;1.93;;;0.87;;
11964;SDS011;6042;41.326;19.826;2023-03-04T09:26:34;4.60;;;1.00;;
11964;SDS011;6042;41.326;19.826;2023-03-04T09:29:03;1.90;;;1.10;;
11964;SDS011;6042;41.326;19.826;2023-03-04T09:31:32;3.43;;;1.20;;
11964;SDS011;6042;41.326;19.826;2023-03-04T09:34:00;2.93;;;1.40;;
11964;SDS011;6042;41.326;19.826;2023-03-04T09:36:29;2.90;;;1.00;;
11964;SDS011;6042;41.326;19.826;2023-03-04T09:38:58;1.87;;;1.30;;
11964;SDS011;6042;41.326;19.826;2023-03-04T09:41:28;2.03;;;1.30;;
11964;SDS011;6042;41.326;19.826;2023-03-04T09:44:06;1.53;;;1.43;;
11964;SDS011;6042;41.326;19.826;2023-03-04T09:46:42;3.00;;;1.20;;
11964;SDS011;6042;41.326;19.826;2023-03-04T09:49:11;2.20;;;1.90;;
11964;SDS011;6042;41.326;19.826;2023-03-04T09:51:43;4.53;;;3.80;;
11964;SDS011;6042;41.326;19.826;2023-03-04T09:54:17;8.33;;;4.80;;
11964;SDS011;6042;41.326;19.826;2023-03-04T09:56:59;9.83;;;5.73;;
11964;SDS011;6042;41.326;19.826;2023-03-04T09:59:42;4.60;;;3.33;;
11964;SDS011;6042;41.326;19.826;2023-03-04T10:02:20;1.90;;;1.60;;
11964;SDS011;6042;41.326;19.826;2023-03-04T10:04:55;2.07;;;1.53;;
11964;SDS011;6042;41.326;19.826;2023-03-04T10:07:28;4.97;;;1.40;;
11964;SDS011;6042;41.326;19.826;2023-03-04T10:10:03;1.60;;;1.30;;
11964;SDS011;6042;41.326;19.826;2023-03-04T10:12:35;1.10;;;1.00;;
11964;SDS011;6042;41.326;19.826;2023-03-04T10:15:13;7.27;;;1.90;;
11964;SDS011;6042;41.326;19.826;2023-03-04T10:17:50;1.23;;;1.13;;
11964;SDS011;6042;41.326;19.826;2023-03-04T10:20:24;4.20;;;1.30;;
11964;SDS011;6042;41.326;19.826;2023-03-04T10:22:56;1.10;;;1.00;;
11964;SDS011;6042;41.326;19.826;2023-03-04T10:25:28;1.13;;;0.80;;
11964;SDS011;6042;41.326;19.826;2023-03-04T10:28:00;1.87;;;0.80;;
11964;SDS011;6042;41.326;19.826;2023-03-04T10:30:36;1.80;;;1.07;;
11964;SDS011;6042;41.326;19.826;2023-03-04T10:33:11;0.97;;;0.87;;
11964;SDS011;6042;41.326;19.826;2023-03-04T10:35:41;1.97;;;1.40;;
11964;SDS011;6042;41.326;19.826;2023-03-04T10:38:12;1.23;;;1.07;;
11964;SDS011;6042;41.326;19.826;2023-03-04T10:40:42;15.30;;;6.63;;
11964;SDS011;6042;41.326;19.826;2023-03-04T10:43:16;11.57;;;2.80;;
11964;SDS011;6042;41.326;19.826;2023-03-04T10:45:46;4.77;;;1.13;;
11964;SDS011;6042;41.326;19.826;2023-03-04T10:48:19;4.63;;;1.73;;
11964;SDS011;6042;41.326;19.826;2023-03-04T10:50:49;1.37;;;1.00;;
11964;SDS011;6042;41.326;19.826;2023-03-04T10:53:23;1.97;;;0.97;;
11964;SDS011;6042;41.326;19.826;2023-03-04T10:55:56;1.00;;;0.80;;
11964;SDS011;6042;41.326;19.826;2023-03-04T10:58:26;0.87;;;0.80;;
11964;SDS011;6042;41.326;19.826;2023-03-04T11:01:01;1.03;;;0.90;;
11964;SDS011;6042;41.326;19.826;2023-03-04T11:03:33;2.00;;;1.30;;
11964;SDS011;6042;41.326;19.826;2023-03-04T11:06:07;1.97;;;1.10;;
11964;SDS011;6042;41.326;19.826;2023-03-04T11:08:42;5.10;;;1.53;;
11964;SDS011;6042;41.326;19.826;2023-03-04T11:11:20;2.00;;;1.20;;
11964;SDS011;6042;41.326;19.826;2023-03-04T11:13:52;1.27;;;0.80;;
11964;SDS011;6042;41.326;19.826;2023-03-04T11:16:25;1.40;;;1.07;;
11964;SDS011;6042;41.326;19.826;2023-03-04T11:18:56;1.87;;;1.47;;
11964;SDS011;6042;41.326;19.826;2023-03-04T11:21:29;1.27;;;1.10;;
11964;SDS011;6042;41.326;19.826;2023-03-04T11:24:07;6.67;;;0.90;;
11964;SDS011;6042;41.326;19.826;2023-03-04T11:26:55;1.33;;;1.10;;
11964;SDS011;6042;41.326;19.826;2023-03-04T11:29:32;0.93;;;0.90;;
11964;SDS011;6042;41.326;19.826;2023-03-04T11:32:05;1.17;;;1.10;;
11964;SDS011;6042;41.326;19.826;2023-03-04T11:34:38;11.67;;;2.70;;
11964;SDS011;6042;41.326;19.826;2023-03-04T11:37:11;1.20;;;1.10;;
11964;SDS011;6042;41.326;19.826;2023-03-04T11:39:51;3.77;;;1.67;;
11964;SDS011;6042;41.326;19.826;2023-03-04T11:42:27;1.37;;;1.10;;
11964;SDS011;6042;41.326;19.826;2023-03-04T11:45:03;5.40;;;3.13;;
11964;SDS011;6042;41.326;19.826;2023-03-04T11:47:55;4.33;;;1.30;;
11964;SDS011;6042;41.326;19.826;2023-03-04T11:50:34;1.33;;;1.13;;
11964;SDS011;6042;41.326;19.826;2023-03-04T11:53:19;1.50;;;1.40;;
11964;SDS011;6042;41.326;19.826;2023-03-04T11:56:15;2.33;;;1.40;;
11964;SDS011;6042;41.326;19.826;2023-03-04T11:58:57;2.13;;;1.93;;
11964;SDS011;6042;41.326;19.826;2023-03-04T12:01:40;2.87;;;1.40;;
11964;SDS011;6042;41.326;19.826;2023-03-04T12:04:19;2.30;;;1.67;;
11964;SDS011;6042;41.326;19.826;2023-03-04T12:07:14;1.77;;;1.53;;
11964;SDS011;6042;41.326;19.826;2023-03-04T12:09:54;3.50;;;1.43;;
11964;SDS011;6042;41.326;19.826;2023-03-04T12:12:34;3.70;;;1.80;;
11964;SDS011;6042;41.326;19.826;2023-03-04T12:15:19;3.43;;;1.40;;
11964;SDS011;6042;41.326;19.826;2023-03-04T12:18:01;1.70;;;1.50;;
11964;SDS011;6042;41.326;19.826;2023-03-04T12:20:51;3.77;;;1.97;;
11964;SDS011;6042;41.326;19.826;2023-03-04T12:26:48;0.83;;;0.80;;
11964;SDS011;6042;41.326;19.826;2023-03-04T12:29:23;2.17;;;0.80;;
11964;SDS011;6042;41.326;19.826;2023-03-04T12:32:02;0.87;;;0.73;;
11964;SDS011;6042;41.326;19.826;2023-03-04T12:34:43;0.83;;;0.77;;
11964;SDS011;6042;41.326;19.826;2023-03-04T12:37:25;1.47;;;0.80;;
11964;SDS011;6042;41.326;19.826;2023-03-04T12:43:29;8.93;;;1.50;;
11964;SDS011;6042;41.326;19.826;2023-03-04T12:46:06;1.03;;;0.93;;
11964;SDS011;6042;41.326;19.826;2023-03-04T12:48:46;2.27;;;1.03;;
11964;SDS011;6042;41.326;19.826;2023-03-04T12:51:24;2.63;;;1.20;;
11964;SDS011;6042;41.326;19.826;2023-03-04T12:54:01;3.23;;;1.20;;
11964;SDS011;6042;41.326;19.826;2023-03-04T12:56:40;0.83;;;0.73;;
11964;SDS011;6042;41.326;19.826;2023-03-04T12:59:14;1.27;;;0.90;;
11964;SDS011;6042;41.326;19.826;2023-03-04T13:01:48;2.93;;;1.00;;
11964;SDS011;6042;41.326;19.826;2023-03-04T13:04:23;0.80;;;0.77;;
11964;SDS011;6042;41.326;19.826;2023-03-04T13:07:02;1.60;;;0.90;;
11964;SDS011;6042;41.326;19.826;2023-03-04T13:09:40;1.10;;;1.00;;
11964;SDS011;6042;41.326;19.826;2023-03-04T13:12:15;1.27;;;1.17;;
11964;SDS011;6042;41.326;19.826;2023-03-04T13:17:45;0.63;;;0.63;;
11964;SDS011;6042;41.326;19.826;2023-03-04T13:20:21;5.03;;;1.30;;
11964;SDS011;6042;41.326;19.826;2023-03-04T13:22:54;0.83;;;0.73;;
11964;SDS011;6042;41.326;19.826;2023-03-04T13:25:31;3.50;;;1.00;;
11964;SDS011;6042;41.326;19.826;2023-03-04T13:28:18;9.53;;;1.53;;
11964;SDS011;6042;41.326;19.826;2023-03-04T13:33:46;2.00;;;1.00;;
11964;SDS011;6042;41.326;19.826;2023-03-04T13:36:25;1.57;;;0.90;;
11964;SDS011;6042;41.326;19.826;2023-03-04T13:39:36;0.80;;;0.70;;
11964;SDS011;6042;41.326;19.826;2023-03-04T13:47:58;5.50;;;0.80;;
11964;SDS011;6042;41.326;19.826;2023-03-04T13:50:32;1.07;;;1.00;;
11964;SDS011;6042;41.326;19.826;2023-03-04T13:53:21;3.73;;;1.00;;
11964;SDS011;6042;41.326;19.826;2023-03-04T13:56:10;1.43;;;0.77;;
11964;SDS011;6042;41.326;19.826;2023-03-04T13:59:09;3.67;;;0.70;;
11964;SDS011;6042;41.326;19.826;2023-03-04T14:02:07;1.63;;;1.23;;
11964;SDS011;6042;41.326;19.826;2023-03-04T14:04:41;1.63;;;1.33;;
11964;SDS011;6042;41.326;19.826;2023-03-04T14:07:18;3.13;;;0.70;;
11964;SDS011;6042;41.326;19.826;2023-03-04T14:09:53;1.80;;;0.80;;
11964;SDS011;6042;41.326;19.826;2023-03-04T14:12:28;3.73;;;1.30;;
11964;SDS011;6042;41.326;19.826;2023-03-04T14:14:58;1.27;;;1.00;;
11964;SDS011;6042;41.326;19.826;2023-03-04T14:17:39;1.47;;;0.63;;
11964;SDS011;6042;41.326;19.826;2023-03-04T14:20:20;1.20;;;0.70;;
11964;SDS011;6042;41.326;19.826;2023-03-04T14:22:51;0.90;;;0.90;;
11964;SDS011;6042;41.326;19.826;2023-03-04T14:25:21;1.90;;;0.97;;
11964;SDS011;6042;41.326;19.826;2023-03-04T14:28:02;0.80;;;0.73;;
11964;SDS011;6042;41.326;19.826;2023-03-04T14:30:34;2.33;;;1.20;;
11964;SDS011;6042;41.326;19.826;2023-03-04T14:33:13;1.83;;;0.70;;
11964;SDS011;6042;41.326;19.826;2023-03-04T14:35:46;1.13;;;0.67;;
11964;SDS011;6042;41.326;19.826;2023-03-04T14:38:18;1.17;;;1.03;;
11964;SDS011;6042;41.326;19.826;2023-03-04T14:40:51;3.20;;;0.97;;
11964;SDS011;6042;41.326;19.826;2023-03-04T14:43:23;10.50;;;2.37;;
11964;SDS011;6042;41.326;19.826;2023-03-04T14:45:52;1.30;;;1.20;;
11964;SDS011;6042;41.326;19.826;2023-03-04T14:48:23;1.83;;;1.40;;
11964;SDS011;6042;41.326;19.826;2023-03-04T14:50:54;2.63;;;1.73;;
11964;SDS011;6042;41.326;19.826;2023-03-04T14:53:24;7.00;;;1.77;;
11964;SDS011;6042;41.326;19.826;2023-03-04T14:55:54;1.90;;;0.97;;
11964;SDS011;6042;41.326;19.826;2023-03-04T14:58:25;1.50;;;0.87;;
11964;SDS011;6042;41.326;19.826;2023-03-04T15:01:03;3.37;;;1.13;;
11964;SDS011;6042;41.326;19.826;2023-03-04T15:03:35;0.87;;;0.80;;
11964;SDS011;6042;41.326;19.826;2023-03-04T15:06:07;2.20;;;0.97;;
11964;SDS011;6042;41.326;19.826;2023-03-04T15:08:45;2.10;;;0.83;;
11964;SDS011;6042;41.326;19.826;2023-03-04T15:11:21;6.77;;;1.80;;
11964;SDS011;6042;41.326;19.826;2023-03-04T15:13:53;8.33;;;1.60;;
11964;SDS011;6042;41.326;19.826;2023-03-04T15:16:24;4.20;;;1.87;;
11964;SDS011;6042;41.326;19.826;2023-03-04T15:18:56;3.47;;;1.40;;
11964;SDS011;6042;41.326;19.826;2023-03-04T15:21:29;12.90;;;1.67;;
11964;SDS011;6042;41.326;19.826;2023-03-04T15:24:02;5.93;;;1.27;;
11964;SDS011;6042;41.326;19.826;2023-03-04T15:26:32;4.33;;;1.90;;
11964;SDS011;6042;41.326;19.826;2023-03-04T15:29:10;6.60;;;1.30;;
11964;SDS011;6042;41.326;19.826;2023-03-04T15:31:41;3.90;;;1.40;;
11964;SDS011;6042;41.326;19.826;2023-03-04T15:34:10;3.03;;;2.37;;